sensor_id;sensor_type;location;lat;lon;timestamp;temperature;humidity
19385;DHT22;9828;54.122;17.974;2022-10-17T00:03:08;10.40;99.90
19385;DHT22;9828;54.122;17.974;2022-10-17T00:13:54;10.30;99.90
19385;DHT22;9828;54.122;17.974;2022-10-17T00:24:37;9.90;99.90
19385;DHT22;9828;54.122;17.974;2022-10-17T00:29:58;9.80;99.90
19385;DHT22;9828;54.122;17.974;2022-10-17T00:35:19;9.90;99.90
19385;DHT22;9828;54.122;17.974;2022-10-17T00:40:41;9.90;99.90
19385;DHT22;9828;54.122;17.974;2022-10-17T00:46:02;9.70;99.90
19385;DHT22;9828;54.122;17.974;2022-10-17T00:51:32;9.50;99.90
19385;DHT22;9828;54.122;17.974;2022-10-17T00:56:56;8.20;99.90
19385;DHT22;9828;54.122;17.974;2022-10-17T01:46:15;9.20;99.90
19385;DHT22;9828;54.122;17.974;2022-10-17T01:51:42;9.20;99.90
19385;DHT22;9828;54.122;17.974;2022-10-17T01:57:09;9.30;99.90
19385;DHT22;9828;54.122;17.974;2022-10-17T02:02:31;9.90;99.90
19385;DHT22;9828;54.122;17.974;2022-10-17T02:40:49;8.80;99.90
19385;DHT22;9828;54.122;17.974;2022-10-17T03:02:53;8.70;99.90
19385;DHT22;9828;54.122;17.974;2022-10-17T03:13:39;8.70;99.90
19385;DHT22;9828;54.122;17.974;2022-10-17T03:19:00;8.50;99.90
19385;DHT22;9828;54.122;17.974;2022-10-17T03:24:22;8.50;99.90
19385;DHT22;9828;54.122;17.974;2022-10-17T03:29:43;8.50;99.90
19385;DHT22;9828;54.122;17.974;2022-10-17T03:35:06;8.30;99.90
19385;DHT22;9828;54.122;17.974;2022-10-17T03:40:29;8.60;99.90
19385;DHT22;9828;54.122;17.974;2022-10-17T03:45:50;8.60;99.90
19385;DHT22;9828;54.122;17.974;2022-10-17T03:51:12;8.60;99.90
19385;DHT22;9828;54.122;17.974;2022-10-17T03:56:38;8.70;99.90
19385;DHT22;9828;54.122;17.974;2022-10-17T04:02:05;8.70;99.90
19385;DHT22;9828;54.122;17.974;2022-10-17T04:07:26;8.70;99.90
19385;DHT22;9828;54.122;17.974;2022-10-17T04:12:48;8.60;99.90
19385;DHT22;9828;54.122;17.974;2022-10-17T04:18:10;8.60;99.90
19385;DHT22;9828;54.122;17.974;2022-10-17T04:23:32;8.60;99.90
19385;DHT22;9828;54.122;17.974;2022-10-17T04:56:19;8.80;99.90
19385;DHT22;9828;54.122;17.974;2022-10-17T05:01:41;8.70;99.90
19385;DHT22;9828;54.122;17.974;2022-10-17T05:07:02;8.70;99.90
19385;DHT22;9828;54.122;17.974;2022-10-17T05:12:46;8.80;99.90
19385;DHT22;9828;54.122;17.974;2022-10-17T05:18:10;8.80;99.90
19385;DHT22;9828;54.122;17.974;2022-10-17T05:23:34;8.80;99.90
19385;DHT22;9828;54.122;17.974;2022-10-17T05:28:55;8.70;99.90
19385;DHT22;9828;54.122;17.974;2022-10-17T05:34:18;8.70;99.90
19385;DHT22;9828;54.122;17.974;2022-10-17T05:39:40;8.70;99.90
19385;DHT22;9828;54.122;17.974;2022-10-17T05:45:03;8.70;99.90
19385;DHT22;9828;54.122;17.974;2022-10-17T05:50:25;8.80;99.90
19385;DHT22;9828;54.122;17.974;2022-10-17T05:56:02;8.90;99.90
19385;DHT22;9828;54.122;17.974;2022-10-17T06:01:25;8.90;99.90
19385;DHT22;9828;54.122;17.974;2022-10-17T06:06:47;8.90;99.90
19385;DHT22;9828;54.122;17.974;2022-10-17T06:12:08;9.10;99.90
19385;DHT22;9828;54.122;17.974;2022-10-17T06:17:30;9.10;99.90
19385;DHT22;9828;54.122;17.974;2022-10-17T06:22:51;8.40;99.90
19385;DHT22;9828;54.122;17.974;2022-10-17T06:28:24;9.30;99.90
19385;DHT22;9828;54.122;17.974;2022-10-17T06:33:47;9.50;99.90
19385;DHT22;9828;54.122;17.974;2022-10-17T06:39:08;9.60;99.90
19385;DHT22;9828;54.122;17.974;2022-10-17T06:44:34;9.60;99.90
19385;DHT22;9828;54.122;17.974;2022-10-17T06:50:22;9.70;99.90
19385;DHT22;9828;54.122;17.974;2022-10-17T06:55:57;9.80;99.90
19385;DHT22;9828;54.122;17.974;2022-10-17T08:38:37;12.60;99.90
19385;DHT22;9828;54.122;17.974;2022-10-17T08:49:45;13.70;99.90
19385;DHT22;9828;54.122;17.974;2022-10-17T09:00:37;14.70;99.90
19385;DHT22;9828;54.122;17.974;2022-10-17T09:17:14;14.70;99.90
19385;DHT22;9828;54.122;17.974;2022-10-17T09:22:59;14.70;99.90
19385;DHT22;9828;54.122;17.974;2022-10-17T09:28:31;14.90;99.90
19385;DHT22;9828;54.122;17.974;2022-10-17T09:33:59;15.20;99.90
19385;DHT22;9828;54.122;17.974;2022-10-17T09:39:24;15.30;99.90
19385;DHT22;9828;54.122;17.974;2022-10-17T09:44:50;15.10;99.90
19385;DHT22;9828;54.122;17.974;2022-10-17T09:50:30;15.40;99.90
19385;DHT22;9828;54.122;17.974;2022-10-17T09:56:00;15.30;99.90
19385;DHT22;9828;54.122;17.974;2022-10-17T10:01:25;15.80;99.90
19385;DHT22;9828;54.122;17.974;2022-10-17T10:12:31;16.50;99.90
19385;DHT22;9828;54.122;17.974;2022-10-17T10:23:16;17.30;99.90
19385;DHT22;9828;54.122;17.974;2022-10-17T10:28:38;17.60;99.90
19385;DHT22;9828;54.122;17.974;2022-10-17T10:34:03;17.50;1.00
19385;DHT22;9828;54.122;17.974;2022-10-17T10:39:33;17.30;1.00
19385;DHT22;9828;54.122;17.974;2022-10-17T10:45:20;17.00;1.00
19385;DHT22;9828;54.122;17.974;2022-10-17T10:50:55;16.80;99.90
19385;DHT22;9828;54.122;17.974;2022-10-17T10:56:33;16.70;99.90
19385;DHT22;9828;54.122;17.974;2022-10-17T11:02:20;16.80;99.90
19385;DHT22;9828;54.122;17.974;2022-10-17T11:13:48;20.30;1.00
19385;DHT22;9828;54.122;17.974;2022-10-17T11:19:24;20.70;99.90
19385;DHT22;9828;54.122;17.974;2022-10-17T11:25:12;22.30;1.00
19385;DHT22;9828;54.122;17.974;2022-10-17T11:30:59;22.70;99.90
19385;DHT22;9828;54.122;17.974;2022-10-17T11:36:27;22.20;1.00
19385;DHT22;9828;54.122;17.974;2022-10-17T11:41:56;22.40;99.90
19385;DHT22;9828;54.122;17.974;2022-10-17T11:47:43;23.10;1.00
19385;DHT22;9828;54.122;17.974;2022-10-17T11:53:50;23.30;1.00
19385;DHT22;9828;54.122;17.974;2022-10-17T12:05:14;24.90;1.00
19385;DHT22;9828;54.122;17.974;2022-10-17T12:22:01;26.10;36.50
19385;DHT22;9828;54.122;17.974;2022-10-17T12:33:04;24.90;1.00
19385;DHT22;9828;54.122;17.974;2022-10-17T12:38:27;24.30;99.90
19385;DHT22;9828;54.122;17.974;2022-10-17T12:43:50;24.60;99.90
19385;DHT22;9828;54.122;17.974;2022-10-17T13:00:48;23.90;1.00
19385;DHT22;9828;54.122;17.974;2022-10-17T13:06:22;23.50;1.00
19385;DHT22;9828;54.122;17.974;2022-10-17T13:11:44;22.80;1.00
19385;DHT22;9828;54.122;17.974;2022-10-17T13:17:11;22.50;1.00
19385;DHT22;9828;54.122;17.974;2022-10-17T13:22:43;22.70;99.90
19385;DHT22;9828;54.122;17.974;2022-10-17T13:28:10;22.90;99.90
19385;DHT22;9828;54.122;17.974;2022-10-17T13:33:40;23.20;1.00
19385;DHT22;9828;54.122;17.974;2022-10-17T13:39:07;22.90;25.90
19385;DHT22;9828;54.122;17.974;2022-10-17T13:44:33;22.50;1.00
19385;DHT22;9828;54.122;17.974;2022-10-17T13:49:56;21.90;99.90
19385;DHT22;9828;54.122;17.974;2022-10-17T13:55:17;21.30;99.90
19385;DHT22;9828;54.122;17.974;2022-10-17T14:00:40;21.00;1.00
19385;DHT22;9828;54.122;17.974;2022-10-17T14:06:14;20.50;99.90
19385;DHT22;9828;54.122;17.974;2022-10-17T14:11:38;20.00;1.00
19385;DHT22;9828;54.122;17.974;2022-10-17T14:17:00;20.00;1.00
19385;DHT22;9828;54.122;17.974;2022-10-17T14:33:30;19.60;99.90
19385;DHT22;9828;54.122;17.974;2022-10-17T14:38:51;19.40;99.90
19385;DHT22;9828;54.122;17.974;2022-10-17T14:44:23;19.20;1.00
19385;DHT22;9828;54.122;17.974;2022-10-17T14:49:48;19.00;1.00
19385;DHT22;9828;54.122;17.974;2022-10-17T14:55:24;18.90;1.00
19385;DHT22;9828;54.122;17.974;2022-10-17T15:00:46;18.70;1.00
19385;DHT22;9828;54.122;17.974;2022-10-17T15:06:27;18.50;1.00
19385;DHT22;9828;54.122;17.974;2022-10-17T15:11:49;18.40;1.10
19385;DHT22;9828;54.122;17.974;2022-10-17T15:17:24;18.20;40.60
19385;DHT22;9828;54.122;17.974;2022-10-17T15:22:45;18.10;62.30
19385;DHT22;9828;54.122;17.974;2022-10-17T15:33:30;17.90;99.90
19385;DHT22;9828;54.122;17.974;2022-10-17T15:38:59;17.60;99.90
19385;DHT22;9828;54.122;17.974;2022-10-17T15:44:21;17.50;99.90
19385;DHT22;9828;54.122;17.974;2022-10-17T15:49:43;17.30;99.90
19385;DHT22;9828;54.122;17.974;2022-10-17T15:55:04;17.20;99.90
19385;DHT22;9828;54.122;17.974;2022-10-17T16:00:25;17.00;99.90
19385;DHT22;9828;54.122;17.974;2022-10-17T16:05:47;16.90;99.90
19385;DHT22;9828;54.122;17.974;2022-10-17T16:16:45;16.60;99.90
19385;DHT22;9828;54.122;17.974;2022-10-17T16:22:20;16.50;99.90
19385;DHT22;9828;54.122;17.974;2022-10-17T16:27:43;16.30;99.90
19385;DHT22;9828;54.122;17.974;2022-10-17T16:33:04;16.20;99.90
19385;DHT22;9828;54.122;17.974;2022-10-17T16:38:25;16.10;99.90
19385;DHT22;9828;54.122;17.974;2022-10-17T16:43:48;16.00;99.90
19385;DHT22;9828;54.122;17.974;2022-10-17T16:49:09;15.90;99.90
19385;DHT22;9828;54.122;17.974;2022-10-17T16:54:31;15.80;99.90
19385;DHT22;9828;54.122;17.974;2022-10-17T16:59:54;15.70;99.90
19385;DHT22;9828;54.122;17.974;2022-10-17T17:05:16;15.60;99.90
19385;DHT22;9828;54.122;17.974;2022-10-17T17:10:37;15.60;99.90
19385;DHT22;9828;54.122;17.974;2022-10-17T17:16:08;15.60;99.90
19385;DHT22;9828;54.122;17.974;2022-10-17T17:21:30;15.60;99.90
19385;DHT22;9828;54.122;17.974;2022-10-17T17:26:53;15.60;99.90
19385;DHT22;9828;54.122;17.974;2022-10-17T17:32:14;15.60;99.90
19385;DHT22;9828;54.122;17.974;2022-10-17T17:37:36;15.70;99.90
19385;DHT22;9828;54.122;17.974;2022-10-17T17:42:57;15.60;99.90
19385;DHT22;9828;54.122;17.974;2022-10-17T17:48:18;15.60;99.90
19385;DHT22;9828;54.122;17.974;2022-10-17T17:53:40;15.70;99.90
19385;DHT22;9828;54.122;17.974;2022-10-17T17:59:02;15.80;99.90
19385;DHT22;9828;54.122;17.974;2022-10-17T18:04:24;15.90;99.90
19385;DHT22;9828;54.122;17.974;2022-10-17T18:09:45;16.00;99.90
19385;DHT22;9828;54.122;17.974;2022-10-17T18:15:08;16.10;99.90
19385;DHT22;9828;54.122;17.974;2022-10-17T18:20:29;16.10;99.90
19385;DHT22;9828;54.122;17.974;2022-10-17T18:25:58;16.10;99.90
19385;DHT22;9828;54.122;17.974;2022-10-17T18:31:23;16.10;99.90
19385;DHT22;9828;54.122;17.974;2022-10-17T18:36:48;16.10;99.90
19385;DHT22;9828;54.122;17.974;2022-10-17T18:42:09;16.10;99.90
19385;DHT22;9828;54.122;17.974;2022-10-17T18:47:32;16.20;99.90
19385;DHT22;9828;54.122;17.974;2022-10-17T18:52:53;16.20;99.90
19385;DHT22;9828;54.122;17.974;2022-10-17T18:58:14;16.20;99.90
19385;DHT22;9828;54.122;17.974;2022-10-17T19:03:39;16.10;99.90
19385;DHT22;9828;54.122;17.974;2022-10-17T19:09:05;16.10;99.90
19385;DHT22;9828;54.122;17.974;2022-10-17T19:14:26;16.10;99.90
19385;DHT22;9828;54.122;17.974;2022-10-17T19:19:48;16.10;99.90
19385;DHT22;9828;54.122;17.974;2022-10-17T19:25:11;16.20;99.90
19385;DHT22;9828;54.122;17.974;2022-10-17T19:30:32;16.20;99.90
19385;DHT22;9828;54.122;17.974;2022-10-17T19:35:59;16.30;99.90
19385;DHT22;9828;54.122;17.974;2022-10-17T19:41:20;16.30;99.90
19385;DHT22;9828;54.122;17.974;2022-10-17T19:46:42;16.30;99.90
19385;DHT22;9828;54.122;17.974;2022-10-17T19:52:08;16.40;99.90
19385;DHT22;9828;54.122;17.974;2022-10-17T19:57:30;16.40;99.90
19385;DHT22;9828;54.122;17.974;2022-10-17T20:02:51;16.40;99.90
19385;DHT22;9828;54.122;17.974;2022-10-17T20:08:13;16.50;99.90
19385;DHT22;9828;54.122;17.974;2022-10-17T20:13:35;16.50;98.20
19385;DHT22;9828;54.122;17.974;2022-10-17T20:19:09;16.50;93.70
19385;DHT22;9828;54.122;17.974;2022-10-17T20:24:30;16.50;91.60
19385;DHT22;9828;54.122;17.974;2022-10-17T20:29:51;16.40;87.00
19385;DHT22;9828;54.122;17.974;2022-10-17T20:35:12;16.40;92.10
19385;DHT22;9828;54.122;17.974;2022-10-17T20:40:34;16.30;97.90
19385;DHT22;9828;54.122;17.974;2022-10-17T20:45:55;16.20;99.90
19385;DHT22;9828;54.122;17.974;2022-10-17T20:51:22;16.20;96.30
19385;DHT22;9828;54.122;17.974;2022-10-17T20:56:44;16.20;97.70
19385;DHT22;9828;54.122;17.974;2022-10-17T21:02:06;16.20;97.60
19385;DHT22;9828;54.122;17.974;2022-10-17T21:07:27;16.10;95.10
19385;DHT22;9828;54.122;17.974;2022-10-17T21:12:48;16.10;98.00
19385;DHT22;9828;54.122;17.974;2022-10-17T21:18:14;16.00;99.90
19385;DHT22;9828;54.122;17.974;2022-10-17T21:23:36;16.00;99.90
19385;DHT22;9828;54.122;17.974;2022-10-17T21:28:58;15.90;99.90
19385;DHT22;9828;54.122;17.974;2022-10-17T21:34:26;16.00;99.90
19385;DHT22;9828;54.122;17.974;2022-10-17T21:39:48;15.90;99.90
19385;DHT22;9828;54.122;17.974;2022-10-17T21:45:10;15.80;99.90
19385;DHT22;9828;54.122;17.974;2022-10-17T21:50:34;15.80;99.90
19385;DHT22;9828;54.122;17.974;2022-10-17T21:56:03;15.80;99.90
19385;DHT22;9828;54.122;17.974;2022-10-17T22:01:27;15.90;99.90
19385;DHT22;9828;54.122;17.974;2022-10-17T22:06:48;15.90;99.90
19385;DHT22;9828;54.122;17.974;2022-10-17T22:12:13;16.10;99.90
19385;DHT22;9828;54.122;17.974;2022-10-17T22:17:34;16.00;99.90
19385;DHT22;9828;54.122;17.974;2022-10-17T22:22:55;15.90;99.90
19385;DHT22;9828;54.122;17.974;2022-10-17T22:28:17;15.90;99.90
19385;DHT22;9828;54.122;17.974;2022-10-17T22:33:38;15.90;99.90
19385;DHT22;9828;54.122;17.974;2022-10-17T22:39:00;15.80;99.90
19385;DHT22;9828;54.122;17.974;2022-10-17T22:44:21;15.80;99.90
19385;DHT22;9828;54.122;17.974;2022-10-17T22:49:42;15.80;99.90
19385;DHT22;9828;54.122;17.974;2022-10-17T22:55:05;15.90;99.90
19385;DHT22;9828;54.122;17.974;2022-10-17T23:00:29;15.90;99.90
19385;DHT22;9828;54.122;17.974;2022-10-17T23:05:51;15.90;99.90
19385;DHT22;9828;54.122;17.974;2022-10-17T23:11:13;15.90;99.90
19385;DHT22;9828;54.122;17.974;2022-10-17T23:16:34;15.90;99.90
19385;DHT22;9828;54.122;17.974;2022-10-17T23:21:55;16.00;99.90
19385;DHT22;9828;54.122;17.974;2022-10-17T23:27:16;16.10;99.90
19385;DHT22;9828;54.122;17.974;2022-10-17T23:32:38;16.00;99.90
19385;DHT22;9828;54.122;17.974;2022-10-17T23:37:59;15.90;99.90
19385;DHT22;9828;54.122;17.974;2022-10-17T23:43:20;15.80;99.90
19385;DHT22;9828;54.122;17.974;2022-10-17T23:48:42;15.70;99.90
19385;DHT22;9828;54.122;17.974;2022-10-17T23:54:03;15.60;99.90
19385;DHT22;9828;54.122;17.974;2022-10-17T23:59:24;15.60;99.90
